Poyntelle, Pennsylvania
Current Conditions -  °F | °C
As of 8:55 AM on Thursday 23 Oct 2014 (Local Time) from KMSV Reporting Station
Overcast Overcast  
Wind Chill: 38°   Ceiling: 1400
Heat Index: 45°   Visibility: 10mi
Dew Point: 43°   Wind: 15mph
Humidity: 93%   Direction: 330°NNW
Pressure: 29.8"   Gusts: 18mph
Location:  41.82°N, 75.42°W
Report Text: KMSV 231255Z AUTO 33013G16KT 10SM BKN014 BKN022 OVC090 07/06 A2980 RMK AO1
Loading
Personal Weather Stations






























Interactive Weather Map
Tropical Storm Tracking
New forecast layout! Learn more

10-Day Weather Forecast

Advertisements
Track Severe Weather on mobile